Aviation Digital Data Service (ADDS)

Output produced by METARs form (1827 UTC 16 August 2018)
found at http://www.aviationweather.gov/adds/metars/
 
WBSB 161800Z 23001KT 7000 FEW015 BKN300 27/26 Q1007 NOSIG
TAF WBSB 161700Z 1618/1800 20002KT 7000 FEW015 
     BECMG 1703/1705 31009KT FEW017